Time;durP1;ratioP1;P1;durP2;ratioP2;P2;SDS_P1;SDS_P2;PMS_P1;PMS_P2;Temp;Humidity;BMP_temperature;BMP_pressure;BME280_temperature;BME280_humidity;BME280_pressure;Samples;Min_cycle;Max_cycle;Signal;HPM_P1;HPM_P2
2022/03/03 00:09:38;;;;;;;176.00;101.00;;;;;;;-6.64;64.51;99926.34;445575;1271;146495;-68
2022/03/03 00:19:44;;;;;;;199.50;109.80;;;;;;;-6.47;64.47;99925.14;444533;1273;143404;-68
2022/03/03 00:29:51;;;;;;;191.80;106.20;;;;;;;-6.43;64.34;99924.52;435789;1273;141290;-67
2022/03/03 00:39:57;;;;;;;183.20;99.80;;;;;;;-6.60;64.50;99909.50;446446;1271;143079;-68
2022/03/03 00:50:03;;;;;;;174.10;98.70;;;;;;;-6.87;64.49;99895.23;445717;1273;142177;-67
2022/03/03 01:00:11;;;;;;;161.10;91.80;;;;;;;-7.14;65.00;99879.41;429654;1273;142162;-67
2022/03/03 01:10:17;;;;;;;150.50;88.30;;;;;;;-7.35;65.63;99862.32;444040;1273;142829;-67
2022/03/03 01:20:23;;;;;;;148.40;88.00;;;;;;;-7.35;66.21;99856.70;444065;1271;143026;-68
2022/03/03 01:30:29;;;;;;;162.60;96.90;;;;;;;-7.23;66.09;99854.80;446243;1271;142927;-68
2022/03/03 01:40:35;;;;;;;158.20;90.50;;;;;;;-7.09;65.71;99850.23;446767;1272;143328;-68
2022/03/03 01:50:41;;;;;;;160.50;92.70;;;;;;;-7.00;65.49;99842.84;446768;1272;143659;-68
2022/03/03 02:00:50;;;;;;;160.40;90.10;;;;;;;-7.00;65.13;99835.67;446240;1271;143854;-67
2022/03/03 02:10:56;;;;;;;156.70;88.30;;;;;;;-6.93;65.18;99824.52;446823;1271;142750;-68
2022/03/03 02:21:02;;;;;;;142.80;84.60;;;;;;;-6.95;65.01;99816.68;447008;1271;142860;-68
2022/03/03 02:31:08;;;;;;;147.30;83.50;;;;;;;-6.97;65.00;99806.63;446867;1271;223984;-67
2022/03/03 02:41:14;;;;;;;141.40;78.10;;;;;;;-7.00;64.99;99802.16;435398;1273;145903;-68
2022/03/03 02:51:26;;;;;;;138.50;80.60;;;;;;;-7.11;64.90;99790.80;442167;1271;142757;-68
2022/03/03 03:01:32;;;;;;;126.00;73.00;;;;;;;-7.11;64.95;99783.82;446985;1271;142478;-69
2022/03/03 03:11:38;;;;;;;129.00;72.00;;;;;;;-7.21;65.09;99774.19;447133;1271;142100;-68
2022/03/03 03:21:44;;;;;;;114.10;70.60;;;;;;;-7.34;65.21;99765.54;446358;1271;142705;-68
2022/03/03 03:31:50;;;;;;;125.50;68.00;;;;;;;-7.35;65.38;99763.14;447101;1271;142290;-69
2022/03/03 03:41:56;;;;;;;107.20;63.00;;;;;;;-7.34;65.41;99758.04;443586;1269;144253;-69
2022/03/03 03:52:02;;;;;;;105.90;63.80;;;;;;;-7.24;65.91;99752.21;446400;1271;142398;-68
2022/03/03 04:02:08;;;;;;;107.10;61.10;;;;;;;-7.02;65.81;99749.55;446952;1273;144191;-67
2022/03/03 04:12:14;;;;;;;107.20;65.50;;;;;;;-6.89;65.91;99732.30;445942;1272;144054;-67
2022/03/03 04:22:20;;;;;;;107.00;59.30;;;;;;;-6.78;65.79;99729.69;447136;1271;141679;-67
2022/03/03 04:32:26;;;;;;;99.20;61.80;;;;;;;-6.51;65.66;99721.56;447144;1271;144113;-67
2022/03/03 04:42:32;;;;;;;102.20;61.80;;;;;;;-6.29;65.72;99717.27;446324;1270;142522;-67
2022/03/03 04:52:39;;;;;;;106.50;60.20;;;;;;;-6.03;65.44;99697.33;446833;1272;143527;-68
2022/03/03 05:02:44;;;;;;;104.70;61.40;;;;;;;-5.86;65.43;99678.80;446868;1272;143755;-68
2022/03/03 05:12:51;;;;;;;104.80;61.90;;;;;;;-5.68;65.49;99661.14;446227;1271;143490;-68
2022/03/03 05:22:56;;;;;;;111.50;59.00;;;;;;;-5.47;65.61;99655.90;446531;1273;142433;-70
2022/03/03 05:33:02;;;;;;;119.90;64.60;;;;;;;-5.27;65.42;99648.44;446399;1273;143315;-68
2022/03/03 05:43:10;;;;;;;133.70;68.20;;;;;;;-5.13;65.56;99655.78;436926;1273;142592;-68
2022/03/03 05:53:18;;;;;;;139.60;74.50;;;;;;;-5.12;65.74;99664.50;443241;1273;141380;-68
2022/03/03 06:03:24;;;;;;;118.40;71.90;;;;;;;-5.28;65.82;99664.31;435162;1273;141987;-67
2022/03/03 06:13:36;;;;;;;114.10;65.80;;;;;;;-5.04;66.28;99660.40;445580;1272;141442;-68
2022/03/03 06:23:43;;;;;;;113.40;67.00;;;;;;;-2.89;65.98;99660.08;443343;1272;142481;-68
2022/03/03 06:33:48;;;;;;;115.20;71.50;;;;;;;1.74;61.70;99654.52;436517;1271;141674;-68
2022/03/03 06:43:54;;;;;;;113.70;74.90;;;;;;;5.42;57.07;99636.58;447084;1271;141958;-68
2022/03/03 06:54:03;;;;;;;102.10;69.60;;;;;;;8.52;52.17;99641.86;437576;1272;141686;-67
2022/03/03 07:04:09;;;;;;;94.90;67.50;;;;;;;10.77;47.90;99635.88;446932;1271;142216;-69
2022/03/03 07:14:15;;;;;;;72.80;52.50;;;;;;;13.47;44.56;99624.78;446542;1272;141992;-70
2022/03/03 07:24:30;;;;;;;73.60;52.70;;;;;;;14.87;40.95;99614.40;446182;1272;143174;-71
2022/03/03 07:34:39;;;;;;;75.70;51.80;;;;;;;16.64;38.56;99613.31;446867;1273;143046;-71
2022/03/03 07:44:45;;;;;;;61.20;47.20;;;;;;;18.57;35.99;99599.05;431150;1272;142429;-72
2022/03/03 07:54:51;;;;;;;56.50;45.20;;;;;;;18.53;33.33;99590.04;446108;1271;142098;-70
2022/03/03 08:05:00;;;;;;;65.00;46.30;;;;;;;18.15;32.56;99598.59;446797;1273;142808;-63
2022/03/03 08:15:07;;;;;;;58.90;41.90;;;;;;;17.28;31.56;99604.14;446415;1271;142053;-62
2022/03/03 08:25:15;;;;;;;52.50;39.30;;;;;;;13.38;32.21;99607.19;441919;1271;142662;-66
2022/03/03 08:35:23;;;;;;;51.20;39.40;;;;;;;11.95;33.65;99605.30;444217;1271;143141;-66
2022/03/03 08:45:32;;;;;;;43.00;31.60;;;;;;;15.91;32.08;99595.56;444557;1271;142324;-66
2022/03/03 08:55:39;;;;;;;39.90;32.20;;;;;;;17.70;30.40;99583.57;437169;1271;142586;-62
2022/03/03 09:05:45;;;;;;;41.90;32.80;;;;;;;19.15;28.97;99576.52;441067;1270;144955;-66
2022/03/03 09:15:51;;;;;;;37.00;29.60;;;;;;;16.51;28.38;99577.58;436018;1271;145451;-74
2022/03/03 09:25:58;;;;;;;38.10;28.90;;;;;;;12.36;30.46;99577.56;440672;1271;142895;-69
2022/03/03 09:36:04;;;;;;;37.70;30.20;;;;;;;11.10;31.85;99575.98;439611;1271;141999;-68
2022/03/03 09:46:11;;;;;;;41.40;26.00;;;;;;;9.30;33.05;99572.90;443783;1271;142619;-68
2022/03/03 09:56:17;;;;;;;34.60;25.10;;;;;;;7.81;34.38;99573.42;438657;1271;142599;-68
2022/03/03 10:06:24;;;;;;;38.70;25.50;;;;;;;6.89;35.41;99571.46;443761;1271;141954;-65
2022/03/03 10:16:31;;;;;;;31.20;19.30;;;;;;;6.30;36.12;99571.29;447302;1271;141545;-66
2022/03/03 10:26:39;;;;;;;28.20;17.30;;;;;;;5.92;36.48;99567.79;447281;1271;143784;-66
2022/03/03 10:36:45;;;;;;;21.70;15.00;;;;;;;5.30;36.88;99567.33;446437;1271;141778;-66
2022/03/03 10:47:05;;;;;;;20.70;15.60;;;;;;;4.85;37.54;99576.30;447220;1271;141606;-70
2022/03/03 10:57:11;;;;;;;25.10;16.30;;;;;;;4.64;38.19;99571.92;446504;1271;141558;-64
2022/03/03 11:07:18;;;;;;;25.20;17.20;;;;;;;4.44;38.93;99567.83;447260;1271;142761;-68
2022/03/03 11:17:26;;;;;;;25.00;17.50;;;;;;;4.20;40.46;99569.26;440086;1271;141602;-66
2022/03/03 11:27:36;;;;;;;28.30;19.50;;;;;;;4.06;41.39;99563.21;446483;1271;142804;-69
2022/03/03 11:37:43;;;;;;;24.70;17.70;;;;;;;4.08;41.81;99556.55;447292;1271;141074;-65
2022/03/03 11:47:51;;;;;;;37.10;19.00;;;;;;;4.17;42.23;99551.36;446486;1271;141453;-73
2022/03/03 11:58:01;;;;;;;25.00;17.90;;;;;;;4.23;42.80;99546.64;431629;1271;140689;-73
2022/03/03 12:08:27;;;;;;;33.30;21.10;;;;;;;4.30;43.24;99543.58;432235;1271;142788;-68
2022/03/03 12:18:38;;;;;;;34.80;23.00;;;;;;;4.51;43.85;99529.57;442428;1271;141520;-76
2022/03/03 12:28:47;;;;;;;34.90;24.40;;;;;;;4.64;44.32;99528.05;439850;1271;141734;-70
2022/03/03 12:38:55;;;;;;;41.50;25.70;;;;;;;4.74;45.42;99530.61;440688;1271;142560;-72
2022/03/03 12:49:02;;;;;;;;;;;;;;;4.68;45.49;99542.63;443873;1271;141647;-68
2022/03/03 12:59:08;;;;;;;41.90;27.10;;;;;;;4.66;46.02;99541.31;439055;1271;128225;-69
2022/03/03 13:09:14;;;;;;;38.20;27.10;;;;;;;4.57;47.19;99548.63;445191;1271;141702;-65
2022/03/03 13:19:20;;;;;;;37.30;27.00;;;;;;;4.43;47.31;99555.76;429983;1272;142172;-63
2022/03/03 13:29:28;;;;;;;40.30;28.00;;;;;;;4.11;48.06;99564.23;444305;1271;142185;-66
2022/03/03 13:39:36;;;;;;;42.90;27.30;;;;;;;3.71;48.64;99570.52;443842;1271;144105;-65
2022/03/03 13:49:48;;;;;;;41.60;27.10;;;;;;;3.54;49.37;99568.54;432445;1271;143648;-66
2022/03/03 13:59:58;;;;;;;33.50;24.20;;;;;;;3.52;49.82;99559.61;441947;1271;140516;-65
2022/03/03 14:10:07;;;;;;;38.90;26.20;;;;;;;3.44;49.84;99559.73;447267;1271;142353;-66
2022/03/03 14:20:13;;;;;;;39.00;25.90;;;;;;;2.88;50.33;99560.88;447235;1271;142227;-64
2022/03/03 14:30:22;;;;;;;40.50;25.80;;;;;;;2.38;51.20;99559.71;446480;1271;142488;-66
2022/03/03 14:40:28;;;;;;;36.50;25.00;;;;;;;2.13;52.03;99553.71;443056;1271;217989;-69
2022/03/03 14:50:35;;;;;;;37.80;25.70;;;;;;;1.71;52.91;99551.10;435516;1271;144743;-64
2022/03/03 15:00:39;;;;;;;;;;;;;;;1.16;53.55;99554.12;445360;1271;143126;-63
2022/03/03 15:10:46;;;;;;;37.50;24.00;;;;;;;0.83;54.23;99553.07;447315;1272;127324;-65
2022/03/03 15:20:52;;;;;;;35.90;23.90;;;;;;;0.43;54.82;99568.64;446919;1272;142468;-65
2022/03/03 15:30:59;;;;;;;38.70;26.00;;;;;;;0.08;55.77;99573.02;433108;1274;141977;-66
2022/03/03 15:41:05;;;;;;;43.70;24.80;;;;;;;-0.28;56.93;99581.98;447068;1271;141564;-64
2022/03/03 15:51:11;;;;;;;42.20;24.50;;;;;;;-0.56;57.43;99586.64;446314;1271;142215;-64
2022/03/03 16:01:16;;;;;;;49.50;31.20;;;;;;;-0.63;57.94;99594.16;447150;1271;142846;-68
2022/03/03 16:11:23;;;;;;;43.50;28.30;;;;;;;-0.79;58.71;99610.60;447240;1271;142246;-65
2022/03/03 16:21:29;;;;;;;40.90;24.10;;;;;;;-0.86;59.03;99608.65;446469;1271;142459;-64
2022/03/03 16:31:57;;;;;;;32.80;22.30;;;;;;;-0.90;59.49;99616.10;433536;1271;142662;-65
2022/03/03 16:42:07;;;;;;;37.30;24.10;;;;;;;-0.86;59.84;99618.79;446996;1273;142359;-65
2022/03/03 16:52:17;;;;;;;37.40;24.20;;;;;;;-0.86;60.21;99622.73;439770;1273;141443;-64
2022/03/03 17:02:25;;;;;;;37.40;24.50;;;;;;;-0.94;60.77;99626.83;447187;1271;141484;-64
2022/03/03 17:12:32;;;;;;;43.60;26.10;;;;;;;-0.99;61.28;99632.41;446496;1271;142892;-64
2022/03/03 17:22:38;;;;;;;38.10;23.40;;;;;;;-1.04;61.49;99637.99;446929;1272;143871;-64
2022/03/03 17:32:44;;;;;;;44.40;28.10;;;;;;;-1.06;61.90;99634.05;446906;1273;141298;-64
2022/03/03 17:42:50;;;;;;;38.50;27.00;;;;;;;-1.04;62.14;99637.98;446166;1272;142503;-65
2022/03/03 17:52:56;;;;;;;40.20;24.30;;;;;;;-1.07;62.21;99638.89;440276;1271;142610;-65
2022/03/03 18:03:03;;;;;;;34.40;23.30;;;;;;;-1.04;61.99;99639.02;444811;1273;141041;-65
2022/03/03 18:13:09;;;;;;;36.40;22.70;;;;;;;-0.93;62.19;99647.77;441487;1273;142542;-64
2022/03/03 18:23:15;;;;;;;39.20;21.90;;;;;;;-0.80;61.93;99661.33;430007;1273;142416;-68
2022/03/03 18:33:22;;;;;;;32.60;20.10;;;;;;;-0.76;61.82;99667.44;446414;1271;142070;-63
2022/03/03 18:43:28;;;;;;;34.70;22.60;;;;;;;-0.77;62.03;99677.59;447130;1271;141037;-64
2022/03/03 18:53:34;;;;;;;28.40;18.80;;;;;;;-0.79;62.32;99682.30;446307;1271;141562;-64
2022/03/03 19:03:41;;;;;;;26.60;18.60;;;;;;;-0.79;62.53;99680.39;442711;1271;141630;-63
2022/03/03 19:13:47;;;;;;;33.80;20.90;;;;;;;-0.67;62.69;99684.50;434885;1271;141828;-62
2022/03/03 19:23:53;;;;;;;27.30;18.20;;;;;;;-0.63;62.95;99687.53;432753;1271;141138;-62
2022/03/03 19:34:14;;;;;;;28.80;17.50;;;;;;;-0.71;63.14;99685.26;441069;1271;141956;-64
2022/03/03 19:44:20;;;;;;;24.20;15.90;;;;;;;-0.75;63.61;99700.95;447089;1271;141809;-64
2022/03/03 19:54:26;;;;;;;32.70;19.60;;;;;;;-0.75;64.02;99698.89;446449;1270;141949;-62
2022/03/03 20:04:32;;;;;;;29.80;18.00;;;;;;;-0.64;64.26;99698.89;447236;1270;141772;-63
2022/03/03 20:14:39;;;;;;;27.20;15.80;;;;;;;-0.58;64.52;99692.95;447117;1271;142040;-62
2022/03/03 20:24:45;;;;;;;26.40;15.90;;;;;;;-0.61;64.62;99695.23;441684;1271;142049;-63
2022/03/03 20:34:51;;;;;;;28.20;16.90;;;;;;;-0.71;65.19;99702.44;447124;1271;145245;-64
2022/03/03 20:44:57;;;;;;;27.50;16.70;;;;;;;-0.69;65.20;99702.91;446899;1272;141670;-63
2022/03/03 20:55:03;;;;;;;28.10;17.00;;;;;;;-0.62;65.41;99700.23;446418;1271;142503;-64
2022/03/03 21:05:10;;;;;;;36.10;20.80;;;;;;;-0.57;65.40;99698.08;447216;1271;143624;-63
2022/03/03 21:15:16;;;;;;;28.90;18.60;;;;;;;-0.42;65.88;99694.05;438744;1273;142704;-62
2022/03/03 21:25:22;;;;;;;35.70;20.10;;;;;;;-0.20;65.50;99687.83;447135;1271;141409;-63
2022/03/03 21:35:28;;;;;;;29.40;17.30;;;;;;;-0.04;65.59;99683.75;444435;1272;143714;-63
2022/03/03 21:45:34;;;;;;;33.00;18.40;;;;;;;-0.06;65.84;99680.69;445918;1270;142049;-61
2022/03/03 21:55:41;;;;;;;33.70;18.20;;;;;;;-0.13;65.77;99675.32;441550;1270;142111;-63
2022/03/03 22:05:47;;;;;;;23.20;15.40;;;;;;;-0.23;66.30;99667.23;447287;1270;142739;-62
2022/03/03 22:15:54;;;;;;;31.20;17.90;;;;;;;-0.37;66.70;99672.30;442256;1268;142098;-63
2022/03/03 22:26:00;;;;;;;26.50;16.90;;;;;;;-0.42;67.02;99669.97;447257;1270;141751;-63
2022/03/03 22:36:06;;;;;;;29.20;17.10;;;;;;;-0.40;67.38;99660.30;446590;1270;142060;-63
2022/03/03 22:46:12;;;;;;;31.20;19.30;;;;;;;-0.27;67.53;99654.58;437557;1272;142763;-62
2022/03/03 22:56:18;;;;;;;36.40;20.80;;;;;;;-0.26;67.30;99650.95;447095;1270;141879;-62
2022/03/03 23:06:24;;;;;;;34.40;19.80;;;;;;;-0.40;67.58;99650.34;446641;1271;142135;-64
2022/03/03 23:16:31;;;;;;;34.90;20.50;;;;;;;-0.51;68.04;99648.46;447426;1270;142499;-64
2022/03/03 23:26:37;;;;;;;32.50;20.60;;;;;;;-0.62;68.39;99645.55;445770;1270;141635;-64
2022/03/03 23:36:44;;;;;;;33.20;18.50;;;;;;;-0.58;68.62;99647.20;430964;1270;141628;-64
2022/03/03 23:46:50;;;;;;;32.60;18.30;;;;;;;-0.41;68.48;99645.52;445076;1270;142071;-64
2022/03/03 23:56:56;;;;;;;34.10;20.30;;;;;;;-0.32;68.68;99645.04;443194;1269;142252;-63
